createdAt,value
2023-05-15T00:00:15.221Z,0.00
2023-05-15T00:01:15.214Z,0.00
2023-05-15T00:02:15.278Z,0.00
2023-05-15T00:03:15.343Z,0.00
2023-05-15T00:04:15.258Z,0.00
2023-05-15T00:05:15.240Z,0.00
2023-05-15T00:06:15.238Z,0.00
2023-05-15T00:07:15.213Z,0.00
2023-05-15T00:08:15.213Z,0.00
2023-05-15T00:09:15.216Z,0.00
2023-05-15T00:10:15.212Z,0.00
2023-05-15T00:11:15.217Z,0.00
2023-05-15T00:12:15.215Z,0.00
2023-05-15T00:13:15.224Z,0.00
2023-05-15T00:14:15.212Z,0.00
2023-05-15T00:15:15.218Z,0.00
2023-05-15T00:16:15.287Z,0.00
2023-05-15T00:17:15.218Z,0.00
2023-05-15T00:18:15.287Z,0.00
2023-05-15T00:19:15.361Z,0.00
2023-05-15T00:20:15.218Z,0.00
2023-05-15T00:21:15.219Z,0.00
2023-05-15T00:22:15.248Z,0.00
2023-05-15T00:23:15.218Z,0.00
2023-05-15T00:24:15.226Z,0.00
2023-05-15T00:25:15.229Z,0.00
2023-05-15T00:26:15.222Z,0.00
2023-05-15T00:27:15.226Z,0.00
2023-05-15T00:28:15.228Z,0.00
2023-05-15T00:29:15.220Z,0.00
2023-05-15T00:30:15.219Z,0.00
2023-05-15T00:31:15.237Z,0.00
2023-05-15T00:32:15.240Z,0.00
2023-05-15T00:33:15.224Z,0.00
2023-05-15T00:34:15.221Z,0.00
2023-05-15T00:35:15.228Z,0.00
2023-05-15T00:36:15.223Z,0.00
2023-05-15T00:37:15.228Z,0.00
2023-05-15T00:38:15.243Z,0.00
2023-05-15T00:39:15.228Z,0.00
2023-05-15T00:40:15.222Z,0.00
2023-05-15T00:41:15.229Z,0.00
2023-05-15T00:42:15.231Z,0.00
2023-05-15T00:43:15.258Z,0.00
2023-05-15T00:44:15.232Z,0.00
2023-05-15T00:45:15.230Z,0.00
2023-05-15T00:46:15.225Z,0.00
2023-05-15T00:47:15.292Z,0.00
2023-05-15T00:48:15.236Z,0.00
2023-05-15T00:49:15.235Z,0.00
2023-05-15T00:50:15.239Z,0.00
2023-05-15T00:51:15.241Z,0.00
2023-05-15T00:52:15.232Z,0.00
2023-05-15T00:53:15.230Z,0.00
2023-05-15T00:54:15.274Z,0.00
2023-05-15T00:55:15.238Z,0.00
2023-05-15T00:56:15.230Z,0.00
2023-05-15T00:57:15.231Z,0.00
2023-05-15T00:58:15.233Z,0.00
2023-05-15T00:59:15.233Z,0.00
2023-05-15T01:00:15.231Z,0.00
2023-05-15T01:01:15.266Z,0.00
2023-05-15T01:02:15.264Z,0.00
2023-05-15T01:03:15.298Z,0.00
2023-05-15T01:04:15.232Z,0.00
2023-05-15T01:05:15.243Z,0.00
2023-05-15T01:06:15.233Z,0.00
2023-05-15T01:07:15.242Z,0.00
2023-05-15T01:08:15.233Z,0.00
2023-05-15T01:09:15.249Z,0.00
2023-05-15T01:10:15.251Z,0.00
2023-05-15T01:11:15.236Z,0.00
2023-05-15T01:12:15.236Z,0.00
2023-05-15T01:13:15.233Z,0.00
2023-05-15T01:14:15.230Z,0.00
2023-05-15T01:15:15.233Z,0.00
2023-05-15T01:16:15.236Z,0.00
2023-05-15T01:17:15.230Z,0.00
2023-05-15T01:18:15.323Z,0.00
2023-05-15T01:19:15.343Z,0.00
2023-05-15T01:20:15.237Z,0.00
2023-05-15T01:21:15.236Z,0.00
2023-05-15T01:22:15.230Z,0.00
2023-05-15T01:23:15.235Z,0.00
2023-05-15T01:24:15.229Z,0.00
2023-05-15T01:25:15.235Z,0.00
2023-05-15T01:26:15.255Z,0.00
2023-05-15T01:27:15.233Z,0.00
2023-05-15T01:28:15.246Z,0.00
2023-05-15T01:29:15.233Z,0.00
2023-05-15T01:30:15.230Z,0.00
2023-05-15T01:31:15.236Z,0.00
2023-05-15T01:32:17.772Z,0.00
2023-05-15T01:33:15.309Z,0.00
2023-05-15T01:34:15.241Z,0.00
2023-05-15T01:35:15.231Z,0.00
2023-05-15T01:36:15.236Z,0.00
2023-05-15T01:37:15.234Z,0.00
2023-05-15T01:38:15.234Z,0.00
2023-05-15T01:39:15.236Z,0.00
2023-05-15T01:40:15.233Z,0.00
2023-05-15T01:41:15.235Z,0.00
2023-05-15T01:42:15.255Z,0.00
2023-05-15T01:43:15.234Z,0.00
2023-05-15T01:44:15.243Z,0.00
2023-05-15T01:45:15.235Z,0.00
2023-05-15T01:46:15.265Z,0.00
2023-05-15T01:47:15.237Z,0.00
2023-05-15T01:48:15.232Z,0.00
2023-05-15T01:49:15.227Z,0.00
2023-05-15T01:50:15.248Z,0.00
2023-05-15T01:51:15.239Z,0.00
2023-05-15T01:52:15.239Z,0.00
2023-05-15T01:53:15.234Z,0.00
2023-05-15T01:54:15.228Z,0.00
2023-05-15T01:55:15.241Z,0.00
2023-05-15T01:56:15.227Z,0.00
2023-05-15T01:57:15.552Z,0.00
2023-05-15T01:58:15.298Z,0.00
2023-05-15T01:59:15.234Z,0.00
2023-05-15T02:00:15.229Z,0.00
2023-05-15T02:01:15.262Z,0.00
2023-05-15T02:02:15.227Z,0.00
2023-05-15T02:03:15.287Z,0.00
2023-05-15T02:04:15.228Z,0.00
2023-05-15T02:05:15.237Z,0.00
2023-05-15T02:06:15.232Z,0.00
2023-05-15T02:07:15.231Z,0.00
2023-05-15T02:08:15.229Z,0.00
2023-05-15T02:09:15.227Z,0.00
2023-05-15T02:10:15.241Z,0.00
2023-05-15T02:11:15.238Z,0.00
2023-05-15T02:12:15.245Z,0.00
2023-05-15T02:13:15.236Z,0.00
2023-05-15T02:14:15.247Z,0.00
2023-05-15T02:15:15.229Z,0.00
2023-05-15T02:16:15.263Z,0.00
2023-05-15T02:17:15.248Z,0.00
2023-05-15T02:18:15.228Z,0.00
2023-05-15T02:19:15.296Z,0.00
2023-05-15T02:20:15.229Z,0.00
2023-05-15T02:21:15.248Z,0.00
2023-05-15T02:22:15.226Z,0.00
2023-05-15T02:23:15.241Z,0.00
2023-05-15T02:24:15.228Z,0.00
2023-05-15T02:25:15.226Z,0.00
2023-05-15T02:26:15.227Z,0.00
2023-05-15T02:27:15.229Z,0.00
2023-05-15T02:28:15.228Z,0.00
2023-05-15T02:29:15.232Z,0.00
2023-05-15T02:30:15.249Z,0.00
2023-05-15T02:31:15.251Z,0.00
2023-05-15T02:32:15.259Z,0.00
2023-05-15T02:33:15.234Z,0.00
2023-05-15T02:34:15.223Z,0.00
2023-05-15T02:35:15.237Z,0.00
2023-05-15T02:36:15.228Z,0.00
2023-05-15T02:37:15.231Z,4.00
2023-05-15T02:38:15.223Z,4.00
2023-05-15T02:39:15.228Z,4.00
2023-05-15T02:40:15.234Z,4.00
2023-05-15T02:41:15.225Z,0.00
2023-05-15T02:42:15.224Z,0.00
2023-05-15T02:43:15.226Z,0.00
2023-05-15T02:44:15.220Z,4.00
2023-05-15T02:45:15.230Z,4.00
2023-05-15T02:46:15.312Z,4.00
2023-05-15T02:47:15.237Z,4.00
2023-05-15T02:48:15.226Z,4.00
2023-05-15T02:49:15.223Z,4.00
2023-05-15T02:50:15.234Z,8.00
2023-05-15T02:51:15.232Z,4.00
2023-05-15T02:52:15.246Z,8.00
2023-05-15T02:53:15.223Z,12.00
2023-05-15T02:54:15.291Z,8.00
2023-05-15T02:55:15.221Z,12.00
2023-05-15T02:56:15.227Z,12.00
2023-05-15T02:57:15.239Z,12.00
2023-05-15T02:58:15.218Z,16.00
2023-05-15T02:59:15.227Z,16.00
2023-05-15T03:00:15.223Z,20.00
2023-05-15T03:01:15.269Z,24.00
2023-05-15T03:02:15.311Z,24.00
2023-05-15T03:03:15.226Z,28.00
2023-05-15T03:04:15.254Z,28.00
2023-05-15T03:05:15.242Z,32.00
2023-05-15T03:06:15.220Z,36.00
2023-05-15T03:07:15.221Z,36.00
2023-05-15T03:08:15.211Z,40.00
2023-05-15T03:09:15.223Z,44.00
2023-05-15T03:10:15.221Z,48.00
2023-05-15T03:11:15.224Z,52.00
2023-05-15T03:12:15.213Z,56.00
2023-05-15T03:13:15.224Z,60.00
2023-05-15T03:14:15.213Z,68.00
2023-05-15T03:15:15.216Z,72.00
2023-05-15T03:16:15.215Z,76.00
2023-05-15T03:17:15.280Z,80.00
2023-05-15T03:18:17.262Z,88.00
2023-05-15T03:19:15.375Z,92.00
2023-05-15T03:20:15.226Z,100.00
2023-05-15T03:21:15.209Z,104.00
2023-05-15T03:22:15.217Z,108.00
2023-05-15T03:23:15.213Z,116.00
2023-05-15T03:24:15.220Z,120.00
2023-05-15T03:25:15.209Z,128.00
2023-05-15T03:26:15.220Z,132.00
2023-05-15T03:27:15.211Z,140.00
2023-05-15T03:28:15.218Z,144.00
2023-05-15T03:29:15.211Z,156.00
2023-05-15T03:30:15.212Z,164.00
2023-05-15T03:31:15.227Z,172.00
2023-05-15T03:32:15.212Z,180.00
2023-05-15T03:33:15.207Z,188.00
2023-05-15T03:34:15.233Z,200.00
2023-05-15T03:35:15.220Z,212.00
2023-05-15T03:36:15.211Z,224.00
2023-05-15T03:37:15.212Z,224.00
2023-05-15T03:38:15.210Z,232.00
2023-05-15T03:39:15.217Z,232.00
2023-05-15T03:40:15.207Z,240.00
2023-05-15T03:41:15.208Z,240.00
2023-05-15T03:42:15.221Z,252.00
2023-05-15T03:43:15.247Z,264.00
2023-05-15T03:44:15.210Z,280.00
2023-05-15T03:45:15.211Z,296.00
2023-05-15T03:46:15.691Z,308.00
2023-05-15T03:47:15.204Z,328.00
2023-05-15T03:48:47.078Z,352.00
2023-05-15T03:49:47.100Z,368.00
2023-05-15T03:50:47.087Z,388.00
2023-05-15T03:51:47.084Z,412.00
2023-05-15T03:52:47.080Z,432.00
2023-05-15T03:53:47.078Z,456.00
2023-05-15T03:54:47.075Z,484.00
2023-05-15T03:55:47.084Z,508.00
2023-05-15T03:56:47.080Z,536.00
2023-05-15T03:57:47.086Z,556.00
2023-05-15T03:58:47.080Z,576.00
2023-05-15T03:59:47.082Z,596.00
2023-05-15T04:00:47.096Z,624.00
2023-05-15T04:02:02.761Z,640.00
2023-05-15T04:02:47.278Z,660.00
2023-05-15T04:03:47.084Z,656.00
2023-05-15T04:04:47.108Z,656.00
2023-05-15T04:05:47.103Z,632.00
2023-05-15T04:06:47.076Z,600.00
2023-05-15T04:07:47.079Z,576.00
2023-05-15T04:08:47.076Z,564.00
2023-05-15T04:09:47.085Z,556.00
2023-05-15T04:10:47.074Z,552.00
2023-05-15T04:11:47.076Z,540.00
2023-05-15T04:12:47.074Z,528.00
2023-05-15T04:13:47.080Z,520.00
2023-05-15T04:14:47.081Z,512.00
2023-05-15T04:15:47.073Z,516.00
2023-05-15T04:16:47.155Z,516.00
2023-05-15T04:17:47.111Z,524.00
2023-05-15T04:18:47.138Z,532.00
2023-05-15T04:19:47.080Z,544.00
2023-05-15T04:20:47.076Z,552.00
2023-05-15T04:21:47.099Z,564.00
2023-05-15T04:22:47.068Z,576.00
2023-05-15T04:23:47.074Z,596.00
2023-05-15T04:24:47.067Z,624.00
2023-05-15T04:25:47.111Z,656.00
2023-05-15T04:26:47.106Z,696.00
2023-05-15T04:27:47.094Z,732.00
2023-05-15T04:29:00.228Z,768.00
2023-05-15T04:29:47.071Z,808.00
2023-05-15T04:30:47.066Z,864.00
2023-05-15T04:31:47.158Z,932.00
2023-05-15T04:32:47.118Z,1004.00
2023-05-15T04:33:48.227Z,1072.00
2023-05-15T04:34:47.064Z,1156.00
2023-05-15T04:35:47.072Z,1244.00
2023-05-15T04:36:47.064Z,1316.00
2023-05-15T04:37:47.169Z,1400.00
2023-05-15T04:38:47.061Z,1492.00
2023-05-15T04:39:47.072Z,1592.00
2023-05-15T04:40:47.170Z,1676.00
2023-05-15T04:41:47.069Z,1768.00
2023-05-15T04:42:47.066Z,1848.00
2023-05-15T04:43:47.068Z,1900.00
2023-05-15T04:44:47.060Z,1928.00
2023-05-15T04:45:47.097Z,1940.00
2023-05-15T04:46:47.064Z,1960.00
2023-05-15T04:47:47.077Z,1960.00
2023-05-15T04:48:47.068Z,1928.00
2023-05-15T04:49:47.068Z,1916.00
2023-05-15T04:50:47.058Z,1932.00
2023-05-15T04:51:47.067Z,1964.00
2023-05-15T04:52:47.062Z,2016.00
2023-05-15T04:53:47.090Z,2056.00
2023-05-15T04:54:47.058Z,2080.00
2023-05-15T04:55:47.063Z,2124.00
2023-05-15T04:56:47.057Z,2152.00
2023-05-15T04:57:47.058Z,2132.00
2023-05-15T04:58:47.058Z,2056.00
2023-05-15T04:59:47.069Z,1968.00
2023-05-15T05:00:47.060Z,1892.00
2023-05-15T05:01:47.159Z,1788.00
2023-05-15T05:02:47.127Z,1680.00
2023-05-15T05:03:47.089Z,1576.00
2023-05-15T05:04:47.056Z,1472.00
2023-05-15T05:05:47.064Z,1392.00
2023-05-15T05:06:47.058Z,1352.00
2023-05-15T05:07:47.062Z,1328.00
2023-05-15T05:08:47.060Z,1320.00
2023-05-15T05:09:47.094Z,1332.00
2023-05-15T05:10:47.058Z,1340.00
2023-05-15T05:11:47.066Z,1348.00
2023-05-15T05:12:47.061Z,1376.00
2023-05-15T05:13:47.066Z,1412.00
2023-05-15T05:14:47.068Z,1456.00
2023-05-15T05:15:47.076Z,1496.00
2023-05-15T05:16:47.060Z,1516.00
2023-05-15T05:17:47.115Z,1520.00
2023-05-15T05:18:47.117Z,1508.00
2023-05-15T05:19:47.067Z,1488.00
2023-05-15T05:20:47.065Z,1476.00
2023-05-15T05:21:47.081Z,1476.00
2023-05-15T05:22:47.068Z,1476.00
2023-05-15T05:23:47.075Z,1480.00
2023-05-15T05:24:47.063Z,1484.00
2023-05-15T05:25:47.094Z,1500.00
2023-05-15T05:26:47.075Z,1512.00
2023-05-15T05:27:47.065Z,1504.00
2023-05-15T05:28:47.065Z,1512.00
2023-05-15T05:29:47.062Z,1556.00
2023-05-15T05:30:47.066Z,1612.00
2023-05-15T05:31:47.199Z,1684.00
2023-05-15T05:32:47.138Z,1748.00
2023-05-15T05:33:47.061Z,1812.00
2023-05-15T05:34:47.068Z,1888.00
2023-05-15T05:35:47.069Z,1928.00
2023-05-15T05:36:47.065Z,1932.00
2023-05-15T05:37:47.070Z,1912.00
2023-05-15T05:38:47.065Z,1944.00
2023-05-15T05:39:47.091Z,1984.00
2023-05-15T05:40:47.064Z,2020.00
2023-05-15T05:41:47.093Z,2064.00
2023-05-15T05:42:47.062Z,2148.00
2023-05-15T05:43:47.068Z,2220.00
2023-05-15T05:44:47.060Z,2244.00
2023-05-15T05:45:47.066Z,2268.00
2023-05-15T05:46:47.101Z,2264.00
2023-05-15T05:47:47.095Z,2252.00
2023-05-15T05:48:47.062Z,2320.00
2023-05-15T05:49:47.071Z,2392.00
2023-05-15T05:50:47.060Z,2368.00
2023-05-15T05:51:47.077Z,2460.00
2023-05-15T05:52:47.068Z,2492.00
2023-05-15T05:53:47.076Z,2452.00
2023-05-15T05:54:47.063Z,2480.00
2023-05-15T05:55:47.061Z,2428.00
2023-05-15T05:56:47.071Z,2504.00
2023-05-15T05:57:47.103Z,2460.00
2023-05-15T05:58:47.060Z,2472.00
2023-05-15T05:59:47.071Z,2588.00
2023-05-15T06:00:47.073Z,2704.00
2023-05-15T06:01:47.081Z,2796.00
2023-05-15T06:02:47.193Z,2892.00
2023-05-15T06:03:47.191Z,3028.00
2023-05-15T06:04:47.064Z,3176.00
2023-05-15T06:05:47.072Z,3216.00
2023-05-15T06:06:47.063Z,3224.00
2023-05-15T06:07:47.067Z,3256.00
2023-05-15T06:08:47.060Z,3220.00
2023-05-15T06:09:47.073Z,3176.00
2023-05-15T06:10:47.069Z,3220.00
2023-05-15T06:11:47.074Z,3236.00
2023-05-15T06:12:47.067Z,3164.00
2023-05-15T06:13:47.090Z,3140.00
2023-05-15T06:14:47.066Z,3064.00
2023-05-15T06:15:47.070Z,2960.00
2023-05-15T06:16:47.100Z,2836.00
2023-05-15T06:17:47.100Z,2696.00
2023-05-15T06:18:47.096Z,2576.00
2023-05-15T06:19:47.071Z,2500.00
2023-05-15T06:20:47.077Z,2428.00
2023-05-15T06:21:47.072Z,2388.00
2023-05-15T06:22:47.066Z,2388.00
2023-05-15T06:23:47.078Z,2452.00
2023-05-15T06:24:47.068Z,2512.00
2023-05-15T06:25:47.073Z,2604.00
2023-05-15T06:26:47.078Z,2716.00
2023-05-15T06:27:47.076Z,2852.00
2023-05-15T06:28:47.074Z,2996.00
2023-05-15T06:29:47.257Z,3116.00
2023-05-15T06:30:47.096Z,3300.00
2023-05-15T06:31:47.079Z,3544.00
2023-05-15T06:32:47.173Z,3756.00
2023-05-15T06:33:47.084Z,3992.00
2023-05-15T06:34:47.076Z,4220.00
2023-05-15T06:35:47.081Z,4464.00
2023-05-15T06:36:47.085Z,4844.00
2023-05-15T06:37:47.081Z,5216.00
2023-05-15T06:38:47.079Z,5520.00
2023-05-15T06:39:47.088Z,5716.00
2023-05-15T06:40:47.095Z,5800.00
2023-05-15T06:41:47.087Z,5788.00
2023-05-15T06:42:47.088Z,5792.00
2023-05-15T06:43:47.088Z,5884.00
2023-05-15T06:44:47.088Z,5892.00
2023-05-15T06:45:47.432Z,5772.00
2023-05-15T06:46:47.182Z,5464.00
2023-05-15T06:47:47.162Z,4936.00
2023-05-15T06:48:47.096Z,4668.00
2023-05-15T06:49:47.104Z,4316.00
2023-05-15T06:50:47.093Z,3936.00
2023-05-15T06:51:47.092Z,3656.00
2023-05-15T06:52:47.098Z,3456.00
2023-05-15T06:53:47.098Z,3244.00
2023-05-15T06:54:47.103Z,3176.00
2023-05-15T06:55:47.105Z,3140.00
2023-05-15T06:56:47.093Z,3144.00
2023-05-15T06:57:47.114Z,3160.00
2023-05-15T06:58:47.115Z,3180.00
2023-05-15T06:59:47.100Z,3108.00
2023-05-15T07:00:47.117Z,2964.00
2023-05-15T07:01:47.458Z,2832.00
2023-05-15T07:02:47.159Z,2648.00
2023-05-15T07:03:47.103Z,2492.00
2023-05-15T07:04:47.170Z,2328.00
2023-05-15T07:05:47.105Z,2168.00
2023-05-15T07:06:47.112Z,2068.00
2023-05-15T07:07:47.103Z,2000.00
2023-05-15T07:08:47.104Z,1952.00
2023-05-15T07:09:47.109Z,1956.00
2023-05-15T07:10:47.105Z,1944.00
2023-05-15T07:11:47.110Z,1884.00
2023-05-15T07:12:47.112Z,1832.00
2023-05-15T07:13:47.128Z,1780.00
2023-05-15T07:14:47.105Z,1740.00
2023-05-15T07:15:47.110Z,1692.00
2023-05-15T07:16:47.165Z,1636.00
2023-05-15T07:17:47.332Z,1596.00
2023-05-15T07:18:47.199Z,1572.00
2023-05-15T07:19:47.115Z,1564.00
2023-05-15T07:20:47.112Z,1596.00
2023-05-15T07:21:47.114Z,1676.00
2023-05-15T07:22:55.549Z,1760.00
2023-05-15T07:23:47.125Z,1824.00
2023-05-15T07:24:47.126Z,1904.00
2023-05-15T07:25:47.134Z,1984.00
2023-05-15T07:26:58.237Z,2048.00
2023-05-15T07:27:47.131Z,2084.00
2023-05-15T07:28:47.118Z,2152.00
2023-05-15T07:29:47.128Z,2252.00
2023-05-15T07:30:47.133Z,2428.00
2023-05-15T07:31:47.168Z,2660.00
2023-05-15T07:32:47.139Z,2900.00
2023-05-15T07:33:47.246Z,3204.00
2023-05-15T07:34:47.179Z,3528.00
2023-05-15T07:35:47.134Z,3812.00
2023-05-15T07:36:47.139Z,4016.00
2023-05-15T07:37:47.190Z,4192.00
2023-05-15T07:38:47.139Z,4316.00
2023-05-15T07:39:47.173Z,4372.00
2023-05-15T07:40:47.130Z,4364.00
2023-05-15T07:41:47.146Z,4288.00
2023-05-15T07:42:47.129Z,4208.00
2023-05-15T07:43:47.135Z,4068.00
2023-05-15T07:44:49.462Z,3660.00
2023-05-15T07:45:47.261Z,3304.00
2023-05-15T07:46:47.180Z,3092.00
2023-05-15T07:47:47.288Z,2976.00
2023-05-15T07:48:47.134Z,2864.00
2023-05-15T07:49:47.442Z,2780.00
2023-05-15T07:50:47.137Z,2788.00
2023-05-15T07:51:47.142Z,2880.00
2023-05-15T07:52:47.135Z,3024.00
2023-05-15T07:53:47.141Z,3168.00
2023-05-15T07:54:47.147Z,3168.00
2023-05-15T07:55:47.158Z,3072.00
2023-05-15T07:56:47.188Z,2940.00
2023-05-15T07:57:53.572Z,2748.00
2023-05-15T07:58:47.155Z,2560.00
2023-05-15T07:59:47.150Z,2440.00
2023-05-15T08:00:47.154Z,2340.00
2023-05-15T08:01:47.149Z,2280.00
2023-05-15T08:02:47.272Z,2252.00
2023-05-15T08:03:47.245Z,2256.00
2023-05-15T08:04:47.158Z,2232.00
2023-05-15T08:05:47.239Z,2224.00
2023-05-15T08:06:47.157Z,2304.00
2023-05-15T08:07:47.155Z,2476.00
2023-05-15T08:08:47.158Z,2656.00
2023-05-15T08:09:47.153Z,2740.00
2023-05-15T08:10:47.163Z,2756.00
2023-05-15T08:11:47.165Z,2676.00
2023-05-15T08:12:47.160Z,2608.00
2023-05-15T08:13:47.173Z,2612.00
2023-05-15T08:14:47.309Z,2644.00
2023-05-15T08:15:47.186Z,2636.00
2023-05-15T08:16:47.164Z,2572.00
2023-05-15T08:17:47.198Z,2492.00
2023-05-15T08:18:47.182Z,2396.00
2023-05-15T08:19:47.175Z,2236.00
2023-05-15T08:20:47.174Z,2168.00
2023-05-15T08:21:47.288Z,2116.00
2023-05-15T08:22:47.175Z,2008.00
2023-05-15T08:23:47.179Z,1932.00
2023-05-15T08:24:47.178Z,1900.00
2023-05-15T08:25:47.176Z,1884.00
2023-05-15T08:26:47.178Z,1856.00
2023-05-15T08:27:47.190Z,1816.00
2023-05-15T08:28:47.180Z,1800.00
2023-05-15T08:29:47.175Z,1780.00
2023-05-15T08:30:47.188Z,1752.00
2023-05-15T08:31:47.344Z,1720.00
2023-05-15T08:32:47.227Z,1684.00
2023-05-15T08:33:47.187Z,1668.00
2023-05-15T08:34:47.185Z,1676.00
2023-05-15T08:35:47.257Z,1700.00
2023-05-15T08:36:47.189Z,1760.00
2023-05-15T08:37:47.208Z,1848.00
2023-05-15T08:38:47.188Z,1932.00
2023-05-15T08:39:47.188Z,2016.00
2023-05-15T08:40:47.217Z,2072.00
2023-05-15T08:41:47.201Z,2068.00
2023-05-15T08:42:47.197Z,2044.00
2023-05-15T08:43:47.192Z,2020.00
2023-05-15T08:44:47.200Z,1988.00
2023-05-15T08:45:47.195Z,1944.00
2023-05-15T08:46:47.206Z,1908.00
2023-05-15T08:47:47.257Z,1880.00
2023-05-15T08:48:47.222Z,1884.00
2023-05-15T08:49:47.200Z,1936.00
2023-05-15T08:50:47.230Z,2000.00
2023-05-15T08:51:47.207Z,2056.00
2023-05-15T08:52:47.206Z,2124.00
2023-05-15T08:53:47.229Z,2136.00
2023-05-15T08:54:48.453Z,2108.00
2023-05-15T08:55:47.208Z,2048.00
2023-05-15T08:56:47.217Z,2008.00
2023-05-15T08:57:47.212Z,1996.00
2023-05-15T08:58:47.217Z,1960.00
2023-05-15T08:59:47.222Z,1916.00
2023-05-15T09:00:47.218Z,1896.00
2023-05-15T09:01:47.240Z,1868.00
2023-05-15T09:02:47.279Z,1804.00
2023-05-15T09:03:47.260Z,1780.00
2023-05-15T09:04:47.219Z,1808.00
2023-05-15T09:05:47.219Z,1828.00
2023-05-15T09:06:47.225Z,1780.00
2023-05-15T09:07:47.221Z,1780.00
2023-05-15T09:08:47.224Z,1828.00
2023-05-15T09:09:47.247Z,1936.00
2023-05-15T09:10:47.230Z,2092.00
2023-05-15T09:11:47.234Z,2244.00
2023-05-15T09:12:47.250Z,2372.00
2023-05-15T09:13:47.230Z,2468.00
2023-05-15T09:14:47.241Z,2532.00
2023-05-15T09:15:47.240Z,2564.00
2023-05-15T09:16:47.318Z,2544.00
2023-05-15T09:17:47.269Z,2480.00
2023-05-15T09:18:47.283Z,2392.00
2023-05-15T09:19:47.237Z,2284.00
2023-05-15T09:20:47.239Z,2176.00
2023-05-15T09:21:47.253Z,2076.00
2023-05-15T09:22:47.248Z,1992.00
2023-05-15T09:23:47.242Z,1932.00
2023-05-15T09:24:47.246Z,1892.00
2023-05-15T09:25:47.278Z,1868.00
2023-05-15T09:26:47.248Z,1868.00
2023-05-15T09:27:47.251Z,1880.00
2023-05-15T09:28:47.246Z,1920.00
2023-05-15T09:29:47.257Z,1960.00
2023-05-15T09:30:47.250Z,2036.00
2023-05-15T09:31:47.267Z,2128.00
2023-05-15T09:32:47.319Z,2236.00
2023-05-15T09:33:47.252Z,2324.00
2023-05-15T09:34:47.271Z,2384.00
2023-05-15T09:35:47.262Z,2432.00
2023-05-15T09:36:47.264Z,2496.00
2023-05-15T09:37:47.255Z,2560.00
2023-05-15T09:38:47.279Z,2620.00
2023-05-15T09:39:47.260Z,2684.00
2023-05-15T09:40:47.266Z,2732.00
2023-05-15T09:41:47.317Z,2756.00
2023-05-15T09:42:47.267Z,2764.00
2023-05-15T09:43:47.267Z,2740.00
2023-05-15T09:44:47.267Z,2668.00
2023-05-15T09:45:47.260Z,2564.00
2023-05-15T09:46:47.386Z,2464.00
2023-05-15T09:47:47.404Z,2372.00
2023-05-15T09:48:47.377Z,2284.00
2023-05-15T09:49:47.269Z,2200.00
2023-05-15T09:50:47.275Z,2152.00
2023-05-15T09:51:47.289Z,2140.00
2023-05-15T09:52:47.292Z,2200.00
2023-05-15T09:53:47.279Z,2280.00
2023-05-15T09:54:50.135Z,2364.00
2023-05-15T09:55:47.281Z,2432.00
2023-05-15T09:56:47.302Z,2500.00
2023-05-15T09:57:47.313Z,2576.00
2023-05-15T09:58:47.336Z,2640.00
2023-05-15T09:59:47.306Z,2668.00
2023-05-15T10:00:49.471Z,2696.00
2023-05-15T10:01:47.332Z,2748.00
2023-05-15T10:02:47.323Z,2788.00
2023-05-15T10:03:47.290Z,2852.00
2023-05-15T10:04:47.301Z,2944.00
2023-05-15T10:05:47.374Z,3024.00
2023-05-15T10:06:47.296Z,3056.00
2023-05-15T10:07:47.305Z,3064.00
2023-05-15T10:08:47.305Z,3084.00
2023-05-15T10:09:47.306Z,3024.00
2023-05-15T10:10:47.299Z,2912.00
2023-05-15T10:11:47.298Z,2788.00
2023-05-15T10:12:48.411Z,2660.00
2023-05-15T10:13:47.327Z,2544.00
2023-05-15T10:14:47.312Z,2516.00
2023-05-15T10:15:47.340Z,2576.00
2023-05-15T10:16:47.314Z,2640.00
2023-05-15T10:17:47.325Z,2684.00
2023-05-15T10:18:47.353Z,2700.00
2023-05-15T10:19:57.257Z,2724.00
2023-05-15T10:20:47.368Z,2768.00
2023-05-15T10:21:47.316Z,2848.00
2023-05-15T10:22:47.325Z,2880.00
2023-05-15T10:23:47.311Z,2864.00
2023-05-15T10:24:47.317Z,2824.00
2023-05-15T10:25:47.327Z,2844.00
2023-05-15T10:26:47.323Z,2948.00
2023-05-15T10:27:47.323Z,3108.00
2023-05-15T10:28:47.329Z,3220.00
2023-05-15T10:29:47.342Z,3344.00
2023-05-15T10:30:47.323Z,3432.00
2023-05-15T10:31:47.401Z,3532.00
2023-05-15T10:32:47.362Z,3564.00
2023-05-15T10:33:47.340Z,3456.00
2023-05-15T10:34:47.333Z,3348.00
2023-05-15T10:35:47.349Z,3252.00
2023-05-15T10:36:47.337Z,3244.00
2023-05-15T10:37:47.334Z,3300.00
2023-05-15T10:38:47.339Z,3280.00
2023-05-15T10:39:47.344Z,3208.00
2023-05-15T10:40:47.344Z,3204.00
2023-05-15T10:41:47.342Z,3172.00
2023-05-15T10:42:47.345Z,3112.00
2023-05-15T10:43:47.354Z,2996.00
2023-05-15T10:44:47.348Z,2892.00
2023-05-15T10:45:47.382Z,2832.00
2023-05-15T10:46:47.411Z,2792.00
2023-05-15T10:47:47.454Z,2824.00
2023-05-15T10:48:47.358Z,2980.00
2023-05-15T10:49:47.350Z,3240.00
2023-05-15T10:50:47.354Z,3528.00
2023-05-15T10:51:47.361Z,3768.00
2023-05-15T10:52:47.362Z,3916.00
2023-05-15T10:53:47.355Z,3900.00
2023-05-15T10:54:47.368Z,3916.00
2023-05-15T10:55:47.385Z,4064.00
2023-05-15T10:56:47.885Z,4372.00
2023-05-15T10:57:47.376Z,4784.00
2023-05-15T10:58:47.374Z,5176.00
2023-05-15T10:59:47.382Z,5684.00
2023-05-15T11:00:47.432Z,6216.00
2023-05-15T11:01:47.405Z,6664.00
2023-05-15T11:02:47.401Z,6932.00
2023-05-15T11:03:49.908Z,7128.00
2023-05-15T11:04:47.450Z,7288.00
2023-05-15T11:05:47.380Z,7524.00
2023-05-15T11:06:47.376Z,7552.00
2023-05-15T11:07:47.377Z,7524.00
2023-05-15T11:08:47.381Z,7592.00
2023-05-15T11:09:47.379Z,7712.00
2023-05-15T11:10:47.405Z,7756.00
2023-05-15T11:11:47.383Z,7828.00
2023-05-15T11:12:47.388Z,7944.00
2023-05-15T11:13:47.389Z,8004.00
2023-05-15T11:14:47.397Z,8012.00
2023-05-15T11:15:47.389Z,8020.00
2023-05-15T11:16:47.470Z,8196.00
2023-05-15T11:17:47.440Z,8180.00
2023-05-15T11:18:47.412Z,8564.00
2023-05-15T11:19:47.392Z,9104.00
2023-05-15T11:20:47.401Z,10112.00
2023-05-15T11:21:47.401Z,11064.00
2023-05-15T11:22:47.404Z,11816.00
2023-05-15T11:23:47.404Z,11952.00
2023-05-15T11:24:47.415Z,12496.00
2023-05-15T11:25:47.405Z,12640.00
2023-05-15T11:26:47.411Z,12092.00
2023-05-15T11:27:47.421Z,11948.00
2023-05-15T11:28:47.438Z,11832.00
2023-05-15T11:29:47.415Z,12260.00
2023-05-15T11:30:47.426Z,12788.00
2023-05-15T11:31:47.418Z,15428.00
2023-05-15T11:32:47.497Z,16336.00
2023-05-15T11:33:47.475Z,19776.00
2023-05-15T11:34:47.430Z,19200.00
2023-05-15T11:35:47.433Z,17600.00
2023-05-15T11:36:47.444Z,16076.00
2023-05-15T11:37:47.451Z,16484.00
2023-05-15T11:38:47.447Z,16960.00
2023-05-15T11:39:47.444Z,17056.00
2023-05-15T11:40:47.447Z,18784.00
2023-05-15T11:41:47.443Z,17440.00
2023-05-15T11:42:47.452Z,14212.00
2023-05-15T11:43:47.450Z,13488.00
2023-05-15T11:44:47.454Z,12620.00
2023-05-15T11:45:47.456Z,11900.00
2023-05-15T11:46:47.502Z,11544.00
2023-05-15T11:47:47.515Z,11576.00
2023-05-15T11:48:47.477Z,11072.00
2023-05-15T11:49:47.500Z,10700.00
2023-05-15T11:50:47.498Z,10308.00
2023-05-15T11:51:47.478Z,10712.00
2023-05-15T11:52:47.498Z,10880.00
2023-05-15T11:53:47.503Z,11092.00
2023-05-15T11:54:47.493Z,15280.00
2023-05-15T11:55:47.507Z,13716.00
2023-05-15T11:56:47.508Z,19008.00
2023-05-15T11:57:47.497Z,18784.00
2023-05-15T11:58:47.513Z,15752.00
2023-05-15T11:59:47.509Z,13524.00
2023-05-15T12:00:47.528Z,20064.00
2023-05-15T12:01:47.640Z,13316.00
2023-05-15T12:02:47.634Z,14040.00
2023-05-15T12:03:47.722Z,16276.00
2023-05-15T12:04:47.559Z,14624.00
2023-05-15T12:05:58.042Z,18752.00
2023-05-15T12:06:47.563Z,15908.00
2023-05-15T12:07:47.558Z,16800.00
2023-05-15T12:08:47.549Z,15484.00
2023-05-15T12:09:47.560Z,16232.00
2023-05-15T12:10:47.561Z,19104.00
2023-05-15T12:11:47.559Z,14508.00
2023-05-15T12:12:47.575Z,14344.00
2023-05-15T12:13:47.574Z,12320.00
2023-05-15T12:14:47.604Z,11768.00
2023-05-15T12:15:47.617Z,11476.00
2023-05-15T12:16:47.655Z,11164.00
2023-05-15T12:17:47.603Z,11684.00
2023-05-15T12:18:47.683Z,11400.00
2023-05-15T12:19:47.610Z,13260.00
2023-05-15T12:20:47.619Z,13384.00
2023-05-15T12:21:47.646Z,14080.00
2023-05-15T12:22:47.627Z,13524.00
2023-05-15T12:23:59.493Z,11760.00